Airfield :
LOGIN :

Register | Disclaimer

   EN    FR    IT 

 










Legend :    VFR   Marginal VFR   IFR   Intensive IFR   Very Intensive IFR
Visi :
Ceiling :
>= 8 km
>= 3000ft
5 to 8 km
1000 to 3000 ft
1500m to 5 km
500 to 1000 ft
800 to 1500m
200 to 500 ft
< 800m
< 200 ft
Symbols :   Thunderstorms  Fog  Heavy snow  Heavy precipitations  Wind > 20 kt
SIGMETs :     Misc.  Thunderstorms  Icing  Turbulence  Mountain Waves  Volcanic Ashes







- Airport Elevation : 458 ft
- Download approach charts


LFSI - St-Dizier

CURRENT METAR :
  • 160830Z AUTO 33004KT 7000 OVC008 03/02 Q1012

EXPIRED METARs :
  • 160800Z AUTO 34006KT 8000 BKN012 OVC046 03/02 Q1011
  • 160730Z AUTO 33008KT 7000 BKN013 OVC048 03/02 Q1011
  • 160700Z AUTO 31009KT 7000 BKN010 OVC014 03/02 Q1010
  • 160630Z AUTO 31007KT 6000 OVC009 04/03 Q1010
  • 160600Z AUTO 32006KT 6000 OVC008 04/03 Q1009

TAF TAF LFSI
Valid from the 16 at 09:00 until the 17 at 09:00 UTC


160800Z 1609/1709 30005KT 8000 BKN010
PROB40
TEMPO 1609/1616 4000 -SHRASN BKN006
TEMPO 1623/1709 2000 BR BKN003
No reported NOTAMs for that airfield.



MET'MAP, your aeronautical weather chart ! - Copyright ORBIFLY December 2007 - Disclaimer

ORBIFLY MET'MAP TEAM :

Programming & Development : Alexandra Zaïnal
Concept & Development : Baudouin d'Aumeries
Co-Development & Prog : Marc-Olivier Méhu
Technical & hardware support : Manuel Goepfert

Contact : metmap@orbifly.com




SOURCES & CREDITS :

   NOAA